sensor_id;sensor_type;location;lat;lon;timestamp;temperature;humidity
71173;DHT22;58875;51.996;4.504;2023-04-29T00:01:14;10.24;81.64
71173;DHT22;58875;51.996;4.504;2023-04-29T00:03:39;10.22;81.68
71173;DHT22;58875;51.996;4.504;2023-04-29T00:06:05;10.22;81.71
71173;DHT22;58875;51.996;4.504;2023-04-29T00:08:30;10.26;81.63
71173;DHT22;58875;51.996;4.504;2023-04-29T00:10:56;10.29;81.35
71173;DHT22;58875;51.996;4.504;2023-04-29T00:13:22;10.29;80.79
71173;DHT22;58875;51.996;4.504;2023-04-29T00:15:47;10.18;80.80
71173;DHT22;58875;51.996;4.504;2023-04-29T00:18:13;10.24;80.48
71173;DHT22;58875;51.996;4.504;2023-04-29T00:20:39;10.15;80.66
71173;DHT22;58875;51.996;4.504;2023-04-29T00:23:04;10.11;80.78
71173;DHT22;58875;51.996;4.504;2023-04-29T00:25:30;10.09;80.81
71173;DHT22;58875;51.996;4.504;2023-04-29T00:27:56;10.09;81.05
71173;DHT22;58875;51.996;4.504;2023-04-29T00:30:26;10.12;81.14
71173;DHT22;58875;51.996;4.504;2023-04-29T00:32:53;10.09;80.74
71173;DHT22;58875;51.996;4.504;2023-04-29T00:35:20;10.05;80.75
71173;DHT22;58875;51.996;4.504;2023-04-29T00:37:45;10.05;80.76
71173;DHT22;58875;51.996;4.504;2023-04-29T00:40:11;10.07;80.59
71173;DHT22;58875;51.996;4.504;2023-04-29T00:42:40;10.01;80.75
71173;DHT22;58875;51.996;4.504;2023-04-29T00:45:09;9.97;80.67
71173;DHT22;58875;51.996;4.504;2023-04-29T00:47:36;9.95;80.76
71173;DHT22;58875;51.996;4.504;2023-04-29T00:50:04;10.04;81.01
71173;DHT22;58875;51.996;4.504;2023-04-29T00:52:29;9.99;80.98
71173;DHT22;58875;51.996;4.504;2023-04-29T00:54:58;10.01;81.20
71173;DHT22;58875;51.996;4.504;2023-04-29T00:57:25;9.95;81.41
71173;DHT22;58875;51.996;4.504;2023-04-29T00:59:57;10.01;81.67
71173;DHT22;58875;51.996;4.504;2023-04-29T01:02:24;10.08;81.40
71173;DHT22;58875;51.996;4.504;2023-04-29T01:04:50;10.08;81.48
71173;DHT22;58875;51.996;4.504;2023-04-29T01:07:26;10.08;81.69
71173;DHT22;58875;51.996;4.504;2023-04-29T01:10:14;10.02;81.59
71173;DHT22;58875;51.996;4.504;2023-04-29T01:12:45;10.02;81.66
71173;DHT22;58875;51.996;4.504;2023-04-29T01:15:21;10.02;81.48
71173;DHT22;58875;51.996;4.504;2023-04-29T01:18:08;9.99;81.46
71173;DHT22;58875;51.996;4.504;2023-04-29T01:20:37;10.01;81.55
71173;DHT22;58875;51.996;4.504;2023-04-29T01:23:04;9.95;81.67
71173;DHT22;58875;51.996;4.504;2023-04-29T01:25:29;9.94;81.53
71173;DHT22;58875;51.996;4.504;2023-04-29T01:28:19;9.94;81.77
71173;DHT22;58875;51.996;4.504;2023-04-29T01:30:55;9.98;81.55
71173;DHT22;58875;51.996;4.504;2023-04-29T01:36:59;10.12;81.44
71173;DHT22;58875;51.996;4.504;2023-04-29T01:39:44;10.09;81.14
71173;DHT22;58875;51.996;4.504;2023-04-29T01:45:02;10.14;81.08
71173;DHT22;58875;51.996;4.504;2023-04-29T01:47:30;10.15;80.88
71173;DHT22;58875;51.996;4.504;2023-04-29T01:49:56;10.19;81.23
71173;DHT22;58875;51.996;4.504;2023-04-29T01:52:22;10.19;81.06
71173;DHT22;58875;51.996;4.504;2023-04-29T01:54:48;10.19;81.08
71173;DHT22;58875;51.996;4.504;2023-04-29T01:57:13;10.21;81.17
71173;DHT22;58875;51.996;4.504;2023-04-29T01:59:39;10.28;81.14
71173;DHT22;58875;51.996;4.504;2023-04-29T02:02:04;10.28;81.06
71173;DHT22;58875;51.996;4.504;2023-04-29T02:04:30;10.31;80.94
71173;DHT22;58875;51.996;4.504;2023-04-29T02:06:58;10.32;80.95
71173;DHT22;58875;51.996;4.504;2023-04-29T02:09:24;10.34;80.77
71173;DHT22;58875;51.996;4.504;2023-04-29T02:11:49;10.29;80.94
71173;DHT22;58875;51.996;4.504;2023-04-29T02:14:15;10.34;81.04
71173;DHT22;58875;51.996;4.504;2023-04-29T02:16:43;10.35;81.29
71173;DHT22;58875;51.996;4.504;2023-04-29T02:19:09;10.36;81.15
71173;DHT22;58875;51.996;4.504;2023-04-29T02:21:35;10.34;81.11
71173;DHT22;58875;51.996;4.504;2023-04-29T02:24:01;10.29;81.11
71173;DHT22;58875;51.996;4.504;2023-04-29T02:26:27;10.31;81.16
71173;DHT22;58875;51.996;4.504;2023-04-29T02:28:59;10.35;81.21
71173;DHT22;58875;51.996;4.504;2023-04-29T02:31:25;10.32;80.93
71173;DHT22;58875;51.996;4.504;2023-04-29T02:33:50;10.32;80.62
71173;DHT22;58875;51.996;4.504;2023-04-29T02:36:18;10.41;80.49
71173;DHT22;58875;51.996;4.504;2023-04-29T02:38:44;10.38;80.07
71173;DHT22;58875;51.996;4.504;2023-04-29T02:41:18;10.46;80.04
71173;DHT22;58875;51.996;4.504;2023-04-29T02:43:43;10.50;79.85
71173;DHT22;58875;51.996;4.504;2023-04-29T02:46:11;10.48;79.60
71173;DHT22;58875;51.996;4.504;2023-04-29T02:48:36;10.50;79.57
71173;DHT22;58875;51.996;4.504;2023-04-29T02:51:02;10.50;79.37
71173;DHT22;58875;51.996;4.504;2023-04-29T02:53:27;10.53;79.65
71173;DHT22;58875;51.996;4.504;2023-04-29T02:55:53;10.55;79.67
71173;DHT22;58875;51.996;4.504;2023-04-29T02:58:20;10.57;79.25
71173;DHT22;58875;51.996;4.504;2023-04-29T03:00:45;10.56;79.12
71173;DHT22;58875;51.996;4.504;2023-04-29T03:03:11;10.52;79.15
71173;DHT22;58875;51.996;4.504;2023-04-29T03:05:36;10.50;79.05
71173;DHT22;58875;51.996;4.504;2023-04-29T03:08:02;10.55;78.98
71173;DHT22;58875;51.996;4.504;2023-04-29T03:10:29;10.60;78.62
71173;DHT22;58875;51.996;4.504;2023-04-29T03:12:54;10.66;78.43
71173;DHT22;58875;51.996;4.504;2023-04-29T03:15:20;10.67;78.11
71173;DHT22;58875;51.996;4.504;2023-04-29T03:17:46;10.65;78.37
71173;DHT22;58875;51.996;4.504;2023-04-29T03:20:11;10.69;78.48
71173;DHT22;58875;51.996;4.504;2023-04-29T03:22:37;10.70;78.14
71173;DHT22;58875;51.996;4.504;2023-04-29T03:25:03;10.73;78.15
71173;DHT22;58875;51.996;4.504;2023-04-29T03:27:29;10.70;78.26
71173;DHT22;58875;51.996;4.504;2023-04-29T03:29:54;10.73;78.49
71173;DHT22;58875;51.996;4.504;2023-04-29T03:32:20;10.76;78.01
71173;DHT22;58875;51.996;4.504;2023-04-29T03:34:46;10.81;78.11
71173;DHT22;58875;51.996;4.504;2023-04-29T03:37:11;10.86;77.93
71173;DHT22;58875;51.996;4.504;2023-04-29T03:39:37;10.87;77.69
71173;DHT22;58875;51.996;4.504;2023-04-29T03:42:02;10.86;77.74
71173;DHT22;58875;51.996;4.504;2023-04-29T03:44:28;10.81;77.88
71173;DHT22;58875;51.996;4.504;2023-04-29T03:46:54;10.87;77.84
71173;DHT22;58875;51.996;4.504;2023-04-29T03:49:20;10.92;77.62
71173;DHT22;58875;51.996;4.504;2023-04-29T03:51:45;10.90;77.31
71173;DHT22;58875;51.996;4.504;2023-04-29T03:54:12;10.92;77.35
71173;DHT22;58875;51.996;4.504;2023-04-29T03:56:38;10.97;77.19
71173;DHT22;58875;51.996;4.504;2023-04-29T03:59:04;10.97;77.13
71173;DHT22;58875;51.996;4.504;2023-04-29T04:01:29;11.01;77.35
71173;DHT22;58875;51.996;4.504;2023-04-29T04:03:55;10.96;77.37
71173;DHT22;58875;51.996;4.504;2023-04-29T04:06:20;10.93;77.53
71173;DHT22;58875;51.996;4.504;2023-04-29T04:08:46;10.93;77.72
71173;DHT22;58875;51.996;4.504;2023-04-29T04:11:12;10.92;77.46
71173;DHT22;58875;51.996;4.504;2023-04-29T04:13:41;10.87;77.95
71173;DHT22;58875;51.996;4.504;2023-04-29T04:16:08;10.92;77.81
71173;DHT22;58875;51.996;4.504;2023-04-29T04:18:35;10.95;77.72
71173;DHT22;58875;51.996;4.504;2023-04-29T04:21:19;10.93;78.04
71173;DHT22;58875;51.996;4.504;2023-04-29T04:23:45;10.90;78.10
71173;DHT22;58875;51.996;4.504;2023-04-29T04:26:11;10.89;78.19
71173;DHT22;58875;51.996;4.504;2023-04-29T04:28:36;10.89;78.27
71173;DHT22;58875;51.996;4.504;2023-04-29T04:31:02;10.93;78.22
71173;DHT22;58875;51.996;4.504;2023-04-29T04:33:28;10.87;78.41
71173;DHT22;58875;51.996;4.504;2023-04-29T04:35:53;10.89;78.69
71173;DHT22;58875;51.996;4.504;2023-04-29T04:38:19;10.87;79.04
71173;DHT22;58875;51.996;4.504;2023-04-29T04:40:44;10.81;79.14
71173;DHT22;58875;51.996;4.504;2023-04-29T04:43:10;10.79;79.33
71173;DHT22;58875;51.996;4.504;2023-04-29T04:45:36;10.81;79.60
71173;DHT22;58875;51.996;4.504;2023-04-29T04:48:02;10.81;79.59
71173;DHT22;58875;51.996;4.504;2023-04-29T04:50:28;10.84;79.46
71173;DHT22;58875;51.996;4.504;2023-04-29T04:52:54;10.81;79.48
71173;DHT22;58875;51.996;4.504;2023-04-29T04:55:21;10.79;79.64
71173;DHT22;58875;51.996;4.504;2023-04-29T04:57:46;10.86;79.64
71173;DHT22;58875;51.996;4.504;2023-04-29T05:00:12;10.89;79.88
71173;DHT22;58875;51.996;4.504;2023-04-29T05:02:38;10.92;79.65
71173;DHT22;58875;51.996;4.504;2023-04-29T05:05:04;10.95;79.75
71173;DHT22;58875;51.996;4.504;2023-04-29T05:07:30;10.97;79.52
71173;DHT22;58875;51.996;4.504;2023-04-29T05:09:56;10.96;79.53
71173;DHT22;58875;51.996;4.504;2023-04-29T05:12:21;10.95;79.67
71173;DHT22;58875;51.996;4.504;2023-04-29T05:14:52;10.97;79.60
71173;DHT22;58875;51.996;4.504;2023-04-29T05:17:20;11.00;79.62
71173;DHT22;58875;51.996;4.504;2023-04-29T05:19:46;11.03;79.64
71173;DHT22;58875;51.996;4.504;2023-04-29T05:22:11;11.00;79.77
71173;DHT22;58875;51.996;4.504;2023-04-29T05:24:37;11.00;79.92
71173;DHT22;58875;51.996;4.504;2023-04-29T05:27:03;10.96;80.09
71173;DHT22;58875;51.996;4.504;2023-04-29T05:29:29;10.99;80.23
71173;DHT22;58875;51.996;4.504;2023-04-29T05:31:54;10.99;80.43
71173;DHT22;58875;51.996;4.504;2023-04-29T05:34:20;11.07;79.96
71173;DHT22;58875;51.996;4.504;2023-04-29T05:36:45;11.10;79.94
71173;DHT22;58875;51.996;4.504;2023-04-29T05:39:11;11.16;79.85
71173;DHT22;58875;51.996;4.504;2023-04-29T05:41:37;11.21;79.53
71173;DHT22;58875;51.996;4.504;2023-04-29T05:44:02;11.16;79.51
71173;DHT22;58875;51.996;4.504;2023-04-29T05:46:28;11.14;79.52
71173;DHT22;58875;51.996;4.504;2023-04-29T05:48:53;11.18;79.39
71173;DHT22;58875;51.996;4.504;2023-04-29T05:51:19;11.17;79.29
71173;DHT22;58875;51.996;4.504;2023-04-29T05:53:44;11.26;79.22
71173;DHT22;58875;51.996;4.504;2023-04-29T05:56:10;11.32;78.92
71173;DHT22;58875;51.996;4.504;2023-04-29T05:58:36;11.34;78.33
71173;DHT22;58875;51.996;4.504;2023-04-29T06:01:02;11.21;78.09
71173;DHT22;58875;51.996;4.504;2023-04-29T06:03:27;11.28;78.28
71173;DHT22;58875;51.996;4.504;2023-04-29T06:05:54;11.41;78.24
71173;DHT22;58875;51.996;4.504;2023-04-29T06:08:20;11.32;77.66
71173;DHT22;58875;51.996;4.504;2023-04-29T06:10:48;11.38;77.83
71173;DHT22;58875;51.996;4.504;2023-04-29T06:13:16;11.42;77.31
71173;DHT22;58875;51.996;4.504;2023-04-29T06:15:41;11.39;77.39
71173;DHT22;58875;51.996;4.504;2023-04-29T06:18:07;11.39;77.01
71173;DHT22;58875;51.996;4.504;2023-04-29T06:20:32;11.50;76.61
71173;DHT22;58875;51.996;4.504;2023-04-29T06:22:58;11.65;76.31
71173;DHT22;58875;51.996;4.504;2023-04-29T06:25:24;11.67;75.51
71173;DHT22;58875;51.996;4.504;2023-04-29T06:27:49;11.71;75.60
71173;DHT22;58875;51.996;4.504;2023-04-29T06:30:15;11.82;74.92
71173;DHT22;58875;51.996;4.504;2023-04-29T06:32:40;11.95;74.37
71173;DHT22;58875;51.996;4.504;2023-04-29T06:35:06;11.98;73.51
71173;DHT22;58875;51.996;4.504;2023-04-29T06:37:32;12.08;73.03
71173;DHT22;58875;51.996;4.504;2023-04-29T06:39:58;12.33;72.49
71173;DHT22;58875;51.996;4.504;2023-04-29T06:42:24;12.95;70.79
71173;DHT22;58875;51.996;4.504;2023-04-29T06:44:50;13.16;69.43
71173;DHT22;58875;51.996;4.504;2023-04-29T06:47:15;13.02;68.91
71173;DHT22;58875;51.996;4.504;2023-04-29T06:49:41;13.18;68.27
71173;DHT22;58875;51.996;4.504;2023-04-29T06:52:08;13.18;67.60
71173;DHT22;58875;51.996;4.504;2023-04-29T06:54:33;13.18;67.92
71173;DHT22;58875;51.996;4.504;2023-04-29T06:56:59;13.19;67.15
71173;DHT22;58875;51.996;4.504;2023-04-29T06:59:24;13.19;66.58
71173;DHT22;58875;51.996;4.504;2023-04-29T07:01:50;13.42;66.74
71173;DHT22;58875;51.996;4.504;2023-04-29T07:04:16;13.60;66.90
71173;DHT22;58875;51.996;4.504;2023-04-29T07:06:42;13.70;66.51
71173;DHT22;58875;51.996;4.504;2023-04-29T07:09:11;13.84;66.21
71173;DHT22;58875;51.996;4.504;2023-04-29T07:11:38;13.87;66.50
71173;DHT22;58875;51.996;4.504;2023-04-29T07:14:04;14.01;65.30
71173;DHT22;58875;51.996;4.504;2023-04-29T07:16:30;14.30;63.93
71173;DHT22;58875;51.996;4.504;2023-04-29T07:18:55;14.68;63.49
71173;DHT22;58875;51.996;4.504;2023-04-29T07:21:21;14.64;63.67
71173;DHT22;58875;51.996;4.504;2023-04-29T07:23:46;14.51;63.51
71173;DHT22;58875;51.996;4.504;2023-04-29T07:26:14;14.32;64.06
71173;DHT22;58875;51.996;4.504;2023-04-29T07:28:44;14.51;64.27
71173;DHT22;58875;51.996;4.504;2023-04-29T07:31:10;14.44;63.48
71173;DHT22;58875;51.996;4.504;2023-04-29T07:33:38;14.90;64.07
71173;DHT22;58875;51.996;4.504;2023-04-29T07:36:07;15.30;61.47
71173;DHT22;58875;51.996;4.504;2023-04-29T07:38:33;15.26;61.05
71173;DHT22;58875;51.996;4.504;2023-04-29T07:40:59;15.26;61.24
71173;DHT22;58875;51.996;4.504;2023-04-29T07:43:24;14.73;62.83
71173;DHT22;58875;51.996;4.504;2023-04-29T07:45:50;14.80;61.71
71173;DHT22;58875;51.996;4.504;2023-04-29T07:48:16;14.93;62.76
71173;DHT22;58875;51.996;4.504;2023-04-29T07:50:42;15.74;59.80
71173;DHT22;58875;51.996;4.504;2023-04-29T07:53:08;16.30;58.64
71173;DHT22;58875;51.996;4.504;2023-04-29T07:55:36;16.62;57.47
71173;DHT22;58875;51.996;4.504;2023-04-29T07:58:02;16.95;57.51
71173;DHT22;58875;51.996;4.504;2023-04-29T08:00:27;16.01;60.04
71173;DHT22;58875;51.996;4.504;2023-04-29T08:02:54;16.45;60.48
71173;DHT22;58875;51.996;4.504;2023-04-29T08:05:20;16.45;60.11
71173;DHT22;58875;51.996;4.504;2023-04-29T08:07:47;16.80;59.25
71173;DHT22;58875;51.996;4.504;2023-04-29T08:10:14;16.19;61.06
71173;DHT22;58875;51.996;4.504;2023-04-29T08:12:39;16.34;61.31
71173;DHT22;58875;51.996;4.504;2023-04-29T08:15:06;17.08;58.07
71173;DHT22;58875;51.996;4.504;2023-04-29T08:17:31;17.31;56.97
71173;DHT22;58875;51.996;4.504;2023-04-29T08:19:57;16.46;59.95
71173;DHT22;58875;51.996;4.504;2023-04-29T08:22:22;16.04;60.52
71173;DHT22;58875;51.996;4.504;2023-04-29T08:24:48;15.67;61.34
71173;DHT22;58875;51.996;4.504;2023-04-29T08:27:14;15.30;62.39
71173;DHT22;58875;51.996;4.504;2023-04-29T08:29:40;14.79;64.28
71173;DHT22;58875;51.996;4.504;2023-04-29T08:32:06;14.52;65.05
71173;DHT22;58875;51.996;4.504;2023-04-29T08:34:32;14.65;64.70
71173;DHT22;58875;51.996;4.504;2023-04-29T08:37:01;14.52;64.62
71173;DHT22;58875;51.996;4.504;2023-04-29T08:39:29;14.64;65.16
71173;DHT22;58875;51.996;4.504;2023-04-29T08:41:56;15.07;63.66
71173;DHT22;58875;51.996;4.504;2023-04-29T08:44:22;16.06;61.83
71173;DHT22;58875;51.996;4.504;2023-04-29T08:46:48;16.15;59.86
71173;DHT22;58875;51.996;4.504;2023-04-29T08:49:15;16.87;58.32
71173;DHT22;58875;51.996;4.504;2023-04-29T08:51:40;17.58;57.00
71173;DHT22;58875;51.996;4.504;2023-04-29T08:54:06;17.20;57.08
71173;DHT22;58875;51.996;4.504;2023-04-29T08:56:32;16.02;59.72
71173;DHT22;58875;51.996;4.504;2023-04-29T08:59:01;15.26;62.20
71173;DHT22;58875;51.996;4.504;2023-04-29T09:01:28;15.41;61.97
71173;DHT22;58875;51.996;4.504;2023-04-29T09:04:08;15.68;61.16
71173;DHT22;58875;51.996;4.504;2023-04-29T09:06:38;15.40;61.21
71173;DHT22;58875;51.996;4.504;2023-04-29T09:09:04;15.24;61.15
71173;DHT22;58875;51.996;4.504;2023-04-29T09:11:31;16.02;59.70
71173;DHT22;58875;51.996;4.504;2023-04-29T09:13:59;16.63;58.01
71173;DHT22;58875;51.996;4.504;2023-04-29T09:16:26;16.94;58.86
71173;DHT22;58875;51.996;4.504;2023-04-29T09:18:52;17.07;56.52
71173;DHT22;58875;51.996;4.504;2023-04-29T09:21:24;16.87;56.12
71173;DHT22;58875;51.996;4.504;2023-04-29T09:23:56;16.59;56.81
71173;DHT22;58875;51.996;4.504;2023-04-29T09:26:23;16.38;57.62
71173;DHT22;58875;51.996;4.504;2023-04-29T09:29:10;16.52;56.94
71173;DHT22;58875;51.996;4.504;2023-04-29T09:31:38;16.23;57.82
71173;DHT22;58875;51.996;4.504;2023-04-29T09:34:04;15.85;58.15
71173;DHT22;58875;51.996;4.504;2023-04-29T09:36:44;15.54;59.52
71173;DHT22;58875;51.996;4.504;2023-04-29T09:39:18;15.39;58.70
71173;DHT22;58875;51.996;4.504;2023-04-29T09:46:55;16.12;56.84
71173;DHT22;58875;51.996;4.504;2023-04-29T09:49:27;16.04;58.50
71173;DHT22;58875;51.996;4.504;2023-04-29T09:51:55;16.30;58.73
71173;DHT22;58875;51.996;4.504;2023-04-29T09:54:23;16.95;57.32
71173;DHT22;58875;51.996;4.504;2023-04-29T09:56:51;17.41;55.43
71173;DHT22;58875;51.996;4.504;2023-04-29T09:59:18;17.21;55.50
71173;DHT22;58875;51.996;4.504;2023-04-29T10:01:54;17.25;55.64
71173;DHT22;58875;51.996;4.504;2023-04-29T10:04:22;16.80;56.76
71173;DHT22;58875;51.996;4.504;2023-04-29T10:06:55;16.39;56.38
71173;DHT22;58875;51.996;4.504;2023-04-29T10:09:22;16.52;56.82
71173;DHT22;58875;51.996;4.504;2023-04-29T10:11:50;16.52;57.38
71173;DHT22;58875;51.996;4.504;2023-04-29T10:14:20;16.52;57.89
71173;DHT22;58875;51.996;4.504;2023-04-29T10:16:48;16.60;56.68
71173;DHT22;58875;51.996;4.504;2023-04-29T10:19:24;16.87;56.12
71173;DHT22;58875;51.996;4.504;2023-04-29T10:21:53;16.91;55.17
71173;DHT22;58875;51.996;4.504;2023-04-29T10:24:21;17.21;55.36
71173;DHT22;58875;51.996;4.504;2023-04-29T10:26:50;17.43;55.32
71173;DHT22;58875;51.996;4.504;2023-04-29T10:29:18;17.43;54.26
71173;DHT22;58875;51.996;4.504;2023-04-29T10:31:45;17.25;54.16
71173;DHT22;58875;51.996;4.504;2023-04-29T10:34:16;16.80;55.94
71173;DHT22;58875;51.996;4.504;2023-04-29T10:36:42;16.57;55.04
71173;DHT22;58875;51.996;4.504;2023-04-29T10:39:15;16.22;56.76
71173;DHT22;58875;51.996;4.504;2023-04-29T10:41:44;16.40;55.18
71173;DHT22;58875;51.996;4.504;2023-04-29T10:44:12;16.81;53.65
71173;DHT22;58875;51.996;4.504;2023-04-29T10:46:37;17.22;52.84
71173;DHT22;58875;51.996;4.504;2023-04-29T10:49:05;17.53;53.51
71173;DHT22;58875;51.996;4.504;2023-04-29T10:51:39;17.28;53.39
71173;DHT22;58875;51.996;4.504;2023-04-29T10:54:12;17.24;53.66
71173;DHT22;58875;51.996;4.504;2023-04-29T10:56:55;17.24;53.45
71173;DHT22;58875;51.996;4.504;2023-04-29T11:01:53;17.83;52.01
71173;DHT22;58875;51.996;4.504;2023-04-29T11:04:21;17.90;52.00
71173;DHT22;58875;51.996;4.504;2023-04-29T11:06:57;17.73;51.77
71173;DHT22;58875;51.996;4.504;2023-04-29T11:14:42;17.96;51.84
71173;DHT22;58875;51.996;4.504;2023-04-29T11:17:15;18.09;50.48
71173;DHT22;58875;51.996;4.504;2023-04-29T11:19:45;17.85;51.56
71173;DHT22;58875;51.996;4.504;2023-04-29T11:22:14;17.69;53.18
71173;DHT22;58875;51.996;4.504;2023-04-29T11:25:00;17.59;51.77
71173;DHT22;58875;51.996;4.504;2023-04-29T11:27:34;17.22;51.85
71173;DHT22;58875;51.996;4.504;2023-04-29T11:30:01;17.10;53.34
71173;DHT22;58875;51.996;4.504;2023-04-29T11:32:33;17.28;52.87
71173;DHT22;58875;51.996;4.504;2023-04-29T11:35:16;17.76;51.77
71173;DHT22;58875;51.996;4.504;2023-04-29T11:37:44;18.09;51.39
71173;DHT22;58875;51.996;4.504;2023-04-29T11:40:10;18.22;49.35
71173;DHT22;58875;51.996;4.504;2023-04-29T11:42:44;18.55;49.86
71173;DHT22;58875;51.996;4.504;2023-04-29T11:45:10;18.75;48.75
71173;DHT22;58875;51.996;4.504;2023-04-29T11:47:36;18.44;48.70
71173;DHT22;58875;51.996;4.504;2023-04-29T11:50:07;18.06;49.28
71173;DHT22;58875;51.996;4.504;2023-04-29T11:52:36;17.90;49.67
71173;DHT22;58875;51.996;4.504;2023-04-29T11:55:03;18.17;51.10
71173;DHT22;58875;51.996;4.504;2023-04-29T11:57:29;18.18;51.63
71173;DHT22;58875;51.996;4.504;2023-04-29T11:59:56;18.00;53.13
71173;DHT22;58875;51.996;4.504;2023-04-29T12:02:22;17.52;53.61
71173;DHT22;58875;51.996;4.504;2023-04-29T12:04:53;17.53;53.30
71173;DHT22;58875;51.996;4.504;2023-04-29T12:07:18;17.76;53.45
71173;DHT22;58875;51.996;4.504;2023-04-29T12:09:45;18.23;52.23
71173;DHT22;58875;51.996;4.504;2023-04-29T12:12:12;18.41;52.67
71173;DHT22;58875;51.996;4.504;2023-04-29T12:14:40;18.23;52.31
71173;DHT22;58875;51.996;4.504;2023-04-29T12:17:07;18.07;51.78
71173;DHT22;58875;51.996;4.504;2023-04-29T12:19:34;17.78;54.05
71173;DHT22;58875;51.996;4.504;2023-04-29T12:22:04;17.48;54.38
71173;DHT22;58875;51.996;4.504;2023-04-29T12:24:35;17.31;56.36
71173;DHT22;58875;51.996;4.504;2023-04-29T12:27:02;17.63;55.75
71173;DHT22;58875;51.996;4.504;2023-04-29T12:29:30;17.66;54.42
71173;DHT22;58875;51.996;4.504;2023-04-29T12:31:56;17.56;55.00
71173;DHT22;58875;51.996;4.504;2023-04-29T12:34:27;17.87;54.31
71173;DHT22;58875;51.996;4.504;2023-04-29T12:37:00;18.03;53.48
71173;DHT22;58875;51.996;4.504;2023-04-29T12:39:30;18.13;54.79
71173;DHT22;58875;51.996;4.504;2023-04-29T12:41:59;18.10;52.76
71173;DHT22;58875;51.996;4.504;2023-04-29T12:44:37;17.55;55.50
71173;DHT22;58875;51.996;4.504;2023-04-29T12:47:10;17.69;54.91
71173;DHT22;58875;51.996;4.504;2023-04-29T12:49:36;17.69;55.64
71173;DHT22;58875;51.996;4.504;2023-04-29T12:52:02;17.87;55.38
71173;DHT22;58875;51.996;4.504;2023-04-29T12:54:29;17.89;53.47
71173;DHT22;58875;51.996;4.504;2023-04-29T12:56:55;17.58;55.02
71173;DHT22;58875;51.996;4.504;2023-04-29T12:59:20;17.45;55.43
71173;DHT22;58875;51.996;4.504;2023-04-29T13:01:46;17.52;55.26
71173;DHT22;58875;51.996;4.504;2023-04-29T13:04:11;17.52;54.34
71173;DHT22;58875;51.996;4.504;2023-04-29T13:06:37;17.38;54.70
71173;DHT22;58875;51.996;4.504;2023-04-29T13:09:05;17.36;54.92
71173;DHT22;58875;51.996;4.504;2023-04-29T13:11:31;17.24;55.51
71173;DHT22;58875;51.996;4.504;2023-04-29T13:13:56;17.45;55.37
71173;DHT22;58875;51.996;4.504;2023-04-29T13:16:22;17.58;55.34
71173;DHT22;58875;51.996;4.504;2023-04-29T13:18:52;17.58;54.38
71173;DHT22;58875;51.996;4.504;2023-04-29T13:21:18;17.49;55.42
71173;DHT22;58875;51.996;4.504;2023-04-29T13:23:43;17.53;55.32
71173;DHT22;58875;51.996;4.504;2023-04-29T13:26:09;17.56;54.62
71173;DHT22;58875;51.996;4.504;2023-04-29T13:28:35;17.93;55.95
71173;DHT22;58875;51.996;4.504;2023-04-29T13:31:00;18.00;53.25
71173;DHT22;58875;51.996;4.504;2023-04-29T13:33:26;18.00;52.65
71173;DHT22;58875;51.996;4.504;2023-04-29T13:35:51;17.94;53.13
71173;DHT22;58875;51.996;4.504;2023-04-29T13:38:17;17.78;53.20
71173;DHT22;58875;51.996;4.504;2023-04-29T13:40:42;17.72;52.53
71173;DHT22;58875;51.996;4.504;2023-04-29T13:43:08;17.66;54.12
71173;DHT22;58875;51.996;4.504;2023-04-29T13:45:34;17.78;53.40
71173;DHT22;58875;51.996;4.504;2023-04-29T13:48:00;17.83;54.28
71173;DHT22;58875;51.996;4.504;2023-04-29T13:50:25;18.03;52.62
71173;DHT22;58875;51.996;4.504;2023-04-29T13:52:51;18.14;53.05
71173;DHT22;58875;51.996;4.504;2023-04-29T13:55:17;18.13;52.26
71173;DHT22;58875;51.996;4.504;2023-04-29T13:57:43;17.94;53.63
71173;DHT22;58875;51.996;4.504;2023-04-29T14:00:09;18.12;53.29
71173;DHT22;58875;51.996;4.504;2023-04-29T14:02:35;18.14;53.36
71173;DHT22;58875;51.996;4.504;2023-04-29T14:05:01;18.24;52.49
71173;DHT22;58875;51.996;4.504;2023-04-29T14:07:26;17.92;51.59
71173;DHT22;58875;51.996;4.504;2023-04-29T14:09:52;17.87;53.09
71173;DHT22;58875;51.996;4.504;2023-04-29T14:12:18;17.99;52.95
71173;DHT22;58875;51.996;4.504;2023-04-29T14:14:43;17.93;52.23
71173;DHT22;58875;51.996;4.504;2023-04-29T14:17:09;17.93;53.05
71173;DHT22;58875;51.996;4.504;2023-04-29T14:19:34;17.78;52.37
71173;DHT22;58875;51.996;4.504;2023-04-29T14:22:00;17.75;54.02
71173;DHT22;58875;51.996;4.504;2023-04-29T14:24:26;17.71;52.41
71173;DHT22;58875;51.996;4.504;2023-04-29T14:26:51;17.79;53.60
71173;DHT22;58875;51.996;4.504;2023-04-29T14:29:18;17.72;52.42
71173;DHT22;58875;51.996;4.504;2023-04-29T14:31:43;17.62;52.98
71173;DHT22;58875;51.996;4.504;2023-04-29T14:34:09;17.58;51.73
71173;DHT22;58875;51.996;4.504;2023-04-29T14:36:34;17.35;52.89
71173;DHT22;58875;51.996;4.504;2023-04-29T14:39:01;17.28;52.24
71173;DHT22;58875;51.996;4.504;2023-04-29T14:41:28;17.31;53.19
71173;DHT22;58875;51.996;4.504;2023-04-29T14:43:53;17.35;50.92
71173;DHT22;58875;51.996;4.504;2023-04-29T14:46:28;17.36;52.57
71173;DHT22;58875;51.996;4.504;2023-04-29T14:48:53;17.25;53.57
71173;DHT22;58875;51.996;4.504;2023-04-29T14:51:21;17.34;53.08
71173;DHT22;58875;51.996;4.504;2023-04-29T14:53:47;17.38;52.27
71173;DHT22;58875;51.996;4.504;2023-04-29T14:56:15;17.43;51.93
71173;DHT22;58875;51.996;4.504;2023-04-29T14:58:41;17.28;51.35
71173;DHT22;58875;51.996;4.504;2023-04-29T15:01:06;17.32;52.48
71173;DHT22;58875;51.996;4.504;2023-04-29T15:03:32;17.28;51.77
71173;DHT22;58875;51.996;4.504;2023-04-29T15:05:57;17.24;52.23
71173;DHT22;58875;51.996;4.504;2023-04-29T15:08:25;17.38;52.66
71173;DHT22;58875;51.996;4.504;2023-04-29T15:10:51;17.48;51.11
71173;DHT22;58875;51.996;4.504;2023-04-29T15:13:17;17.46;51.83
71173;DHT22;58875;51.996;4.504;2023-04-29T15:15:47;17.42;52.05
71173;DHT22;58875;51.996;4.504;2023-04-29T15:18:13;17.32;52.97
71173;DHT22;58875;51.996;4.504;2023-04-29T15:20:39;17.51;52.17
71173;DHT22;58875;51.996;4.504;2023-04-29T15:23:05;17.61;52.64
71173;DHT22;58875;51.996;4.504;2023-04-29T15:25:33;17.52;51.65
71173;DHT22;58875;51.996;4.504;2023-04-29T15:28:02;17.42;52.27
71173;DHT22;58875;51.996;4.504;2023-04-29T15:30:28;17.15;52.00
71173;DHT22;58875;51.996;4.504;2023-04-29T15:32:54;17.10;53.34
71173;DHT22;58875;51.996;4.504;2023-04-29T15:35:20;17.14;52.48
71173;DHT22;58875;51.996;4.504;2023-04-29T15:37:45;17.10;53.08
71173;DHT22;58875;51.996;4.504;2023-04-29T15:40:11;17.03;52.91
71173;DHT22;58875;51.996;4.504;2023-04-29T15:42:37;17.03;53.32
71173;DHT22;58875;51.996;4.504;2023-04-29T15:45:03;17.04;52.80
71173;DHT22;58875;51.996;4.504;2023-04-29T15:47:29;16.91;53.46
71173;DHT22;58875;51.996;4.504;2023-04-29T15:49:55;17.03;53.08